Observation data for Silverton on 11/17/2019      Previous  Date       Current Mesonet Observations  Soil Data  Daily Summary Page  Observations in Plain Language
KSVS 170600Z 24007KT 08/03 A2996 RMK A01 T00810026  RH  069%=      5-min Rain = 0
KSVS 170605Z 25007KT 08/03 A2995 RMK A01 T00820026  RH  069%=      5-min Rain = 0
KSVS 170610Z 26007KT 08/03 A2995 RMK A01 T00800025  RH  069%=      5-min Rain = 0
KSVS 170615Z 27007KT 08/03 A2995 RMK A01 T00810025  RH  069%=      5-min Rain = 0
KSVS 170620Z 26008KT 08/03 A2996 RMK A01 T00820025  RH  069%=      5-min Rain = 0
KSVS 170625Z 26009KT 08/02 A2996 RMK A01 T00830024  RH  068%=      5-min Rain = 0
KSVS 170630Z 25008KT 09/02 A2996 RMK A01 T00850024  RH  067%=      5-min Rain = 0
KSVS 170635Z 25008KT 09/02 A2996 RMK A01 T00860024  RH  066%=      5-min Rain = 0
KSVS 170640Z 26008KT 09/02 A2996 RMK A01 T00890024  RH  065%=      5-min Rain = 0
KSVS 170645Z 26008KT 09/02 A2996 RMK A01 T00910024  RH  064%=      5-min Rain = 0
KSVS 170650Z 25009KT 09/02 A2996 RMK A01 T00940024  RH  062%=      5-min Rain = 0
KSVS 170655Z 25008KT 09/02 A2996 RMK A01 T00940023  RH  062%=      5-min Rain = 0
KSVS 170700Z 24008KT 09/02 A2996 RMK A01 T00920023  RH  063%=      5-min Rain = 0
KSVS 170705Z 24009KT 09/02 A2996 RMK A01 T00900023  RH  064%=      5-min Rain = 0
KSVS 170710Z 24009KT 09/02 A2996 RMK A01 T00880023  RH  065%=      5-min Rain = 0
KSVS 170715Z 24008KT 09/02 A2996 RMK A01 T00890024  RH  065%=      5-min Rain = 0
KSVS 170720Z 30007KT 09/02 A2997 RMK A01 T00860023  RH  066%=      5-min Rain = 0
KSVS 170725Z 31009KT 08/03 A2997 RMK A01 T00840025  RH  067%=      5-min Rain = 0
KSVS 170730Z 31008KT 08/03 A2997 RMK A01 T00840025  RH  068%=      5-min Rain = 0
KSVS 170735Z 30008KT 08/02 A2997 RMK A01 T00820024  RH  068%=      5-min Rain = 0
KSVS 170740Z 30008KT 08/02 A2997 RMK A01 T00810024  RH  068%=      5-min Rain = 0
KSVS 170745Z 31008KT 08/02 A2997 RMK A01 T00800023  RH  069%=      5-min Rain = 0
KSVS 170750Z 32008KT 08/02 A2997 RMK A01 T00780023  RH  069%=      5-min Rain = 0
KSVS 170755Z 33008KT 08/02 A2998 RMK A01 T00760022  RH  070%=      5-min Rain = 0
KSVS 170800Z 33008KT 08/02 A2997 RMK A01 T00750021  RH  070%=      5-min Rain = 0
KSVS 170805Z 33008KT 07/02 A2997 RMK A01 T00740021  RH  070%=      5-min Rain = 0
KSVS 170810Z 32009KT 07/02 A2998 RMK A01 T00730021  RH  070%=      5-min Rain = 0
KSVS 170815Z 32009KT 08/02 A2998 RMK A01 T00750021  RH  070%=      5-min Rain = 0
KSVS 170820Z 33010KT 08/02 A2998 RMK A01 T00760021  RH  069%=      5-min Rain = 0
KSVS 170825Z 34011KT 08/02 A2998 RMK A01 T00810020  RH  067%=      5-min Rain = 0
KSVS 170830Z 34011KT 08/02 A2998 RMK A01 T00840019  RH  065%=      5-min Rain = 0
KSVS 170835Z 34013KT 09/02 A2999 RMK A01 T00870018  RH  063%=      5-min Rain = 0
KSVS 170840Z 35015KT 09/02 A2998 RMK A01 T00900018  RH  062%=      5-min Rain = 0
KSVS 170845Z 35016G21KT 09/02 A2998 RMK A01 T00910018  RH  061%=      5-min Rain = 0
KSVS 170850Z 35017G23KT 09/02 A2999 RMK A01 T00910019  RH  061%=      5-min Rain = 0
KSVS 170855Z 36020G28KT 09/02 A2999 RMK A01 T00930019  RH  061%=      5-min Rain = 0
KSVS 170900Z 36025G34KT 10/01 A2999 RMK A01 T00990006  RH  053%=      5-min Rain = 0
KSVS 170905Z 00025G34KT 10/M00 A2999 RMK A01 T00981001  RH  051%=      5-min Rain = 0
KSVS 170910Z 00024G31KT 10/M00 A2999 RMK A01 T00961001  RH  051%=      5-min Rain = 0
KSVS 170915Z 00023G28KT 10/M00 A30 RMK A01 T00951002  RH  051%=      5-min Rain = 0
KSVS 170920Z 00021G27KT 09/M00 A30 RMK A01 T00941003  RH  051%=      5-min Rain = 0
KSVS 170925Z 00021G27KT 09/M00 A30 RMK A01 T00941004  RH  051%=      5-min Rain = 0
KSVS 170930Z 00021G28KT 09/M01 A3001 RMK A01 T00931005  RH  051%=      5-min Rain = 0
KSVS 170935Z 00023G30KT 09/M01 A3001 RMK A01 T00941008  RH  049%=      5-min Rain = 0
KSVS 170940Z 00022G30KT 09/M01 A3002 RMK A01 T00941010  RH  049%=      5-min Rain = 0
KSVS 170945Z 00021G28KT 09/M01 A3002 RMK A01 T00931011  RH  049%=      5-min Rain = 0
KSVS 170950Z 00025G32KT 09/M01 A3002 RMK A01 T00931011  RH  049%=      5-min Rain = 0
KSVS 170955Z 00023G30KT 09/M01 A3003 RMK A01 T00931012  RH  048%=      5-min Rain = 0
KSVS 171000Z 01021G26KT 09/M01 A3003 RMK A01 T00901011  RH  050%=      5-min Rain = 0
KSVS 171005Z 00023G29KT 09/M01 A3004 RMK A01 T00911010  RH  050%=      5-min Rain = 0
KSVS 171010Z 00023G32KT 09/M01 A3003 RMK A01 T00911011  RH  049%=      5-min Rain = 0
KSVS 171015Z 01022G27KT 09/M01 A3003 RMK A01 T00891010  RH  050%=      5-min Rain = 0
KSVS 171020Z 01021G27KT 09/M01 A3004 RMK A01 T00881009  RH  051%=      5-min Rain = 0
KSVS 171025Z 01019G25KT 09/M01 A3004 RMK A01 T00861009  RH  052%=      5-min Rain = 0
KSVS 171030Z 01019G25KT 09/M01 A3004 RMK A01 T00851008  RH  052%=      5-min Rain = 0
KSVS 171035Z 01020G27KT 08/M01 A3005 RMK A01 T00841008  RH  053%=      5-min Rain = 0
KSVS 171040Z 01019G25KT 08/M01 A3005 RMK A01 T00831008  RH  054%=      5-min Rain = 0
KSVS 171045Z 01018G23KT 08/M01 A3005 RMK A01 T00821007  RH  054%=      5-min Rain = 0
KSVS 171050Z 01017G23KT 08/M01 A3005 RMK A01 T00821007  RH  054%=      5-min Rain = 0
KSVS 171055Z 01020G25KT 08/M01 A3005 RMK A01 T00821006  RH  054%=      5-min Rain = 0
KSVS 171100Z 01018G26KT 08/M01 A3005 RMK A01 T00801006  RH  055%=      5-min Rain = 0
KSVS 171105Z 01019G24KT 08/M01 A3006 RMK A01 T00791006  RH  055%=      5-min Rain = 0
KSVS 171110Z 01017G23KT 08/M01 A3006 RMK A01 T00781006  RH  056%=      5-min Rain = 0
KSVS 171115Z 00018KT 08/M01 A3007 RMK A01 T00761005  RH  057%=      5-min Rain = 0
KSVS 171120Z 00018G24KT 08/M01 A3007 RMK A01 T00761005  RH  057%=      5-min Rain = 0
KSVS 171125Z 00017G22KT 08/M00 A3007 RMK A01 T00751004  RH  058%=      5-min Rain = 0
KSVS 171130Z 01016G23KT 07/M00 A3008 RMK A01 T00741004  RH  058%=      5-min Rain = 0
KSVS 171135Z 00018G24KT 07/M00 A3008 RMK A01 T00741003  RH  059%=      5-min Rain = 0
KSVS 171140Z 00017G23KT 07/M00 A3009 RMK A01 T00731002  RH  059%=      5-min Rain = 0
KSVS 171145Z 00017G23KT 07/M00 A3009 RMK A01 T00731002  RH  060%=      5-min Rain = 0
KSVS 171150Z 00018G23KT 07/M00 A3009 RMK A01 T00721001  RH  060%=      5-min Rain = 0
KSVS 171155Z 00017G24KT 07/M00 A3009 RMK A01 T00711001  RH  061%=      5-min Rain = 0
KSVS 171200Z 00017G23KT 07/00 A3009 RMK A01 T007100-0  RH  061%=      5-min Rain = 0
KSVS 171205Z 00018KT 07/00 A301 RMK A01 T00700001  RH  062%=      5-min Rain = 0
KSVS 171210Z 00019G25KT 07/00 A301 RMK A01 T00710002  RH  062%=      5-min Rain = 0
KSVS 171215Z 00019G26KT 07/00 A301 RMK A01 T00700002  RH  063%=      5-min Rain = 0
KSVS 171220Z 36018G26KT 07/00 A3011 RMK A01 T00700003  RH  063%=      5-min Rain = 0
KSVS 171225Z 00019G25KT 07/00 A3011 RMK A01 T00690003  RH  064%=      5-min Rain = 0
KSVS 171230Z 00019G26KT 07/00 A3011 RMK A01 T00690004  RH  064%=      5-min Rain = 0
KSVS 171235Z 00018G23KT 07/00 A3012 RMK A01 T00680004  RH  065%=      5-min Rain = 0
KSVS 171240Z 00019G24KT 07/01 A3012 RMK A01 T00680005  RH  065%=      5-min Rain = 0
KSVS 171245Z 00017G24KT 07/01 A3012 RMK A01 T00660005  RH  066%=      5-min Rain = 0
KSVS 171250Z 00017G22KT 07/01 A3012 RMK A01 T00650005  RH  067%=      5-min Rain = 0
KSVS 171255Z 00017G23KT 07/01 A3012 RMK A01 T00650006  RH  066%=      5-min Rain = 0
KSVS 171300Z 00017G22KT 07/01 A3013 RMK A01 T00650006  RH  067%=      5-min Rain = 0
KSVS 171305Z 00018G25KT 06/01 A3013 RMK A01 T00640006  RH  067%=      5-min Rain = 0
KSVS 171310Z 00017KT 06/01 A3013 RMK A01 T00640006  RH  067%=      5-min Rain = 0
KSVS 171315Z 00017G23KT 06/01 A3014 RMK A01 T00630006  RH  068%=      5-min Rain = 0
KSVS 171320Z 00016G21KT 06/01 A3014 RMK A01 T00630006  RH  068%=      5-min Rain = 0
KSVS 171325Z 00016G21KT 06/01 A3014 RMK A01 T00620005  RH  068%=      5-min Rain = 0
KSVS 171330Z 00016G21KT 06/01 A3014 RMK A01 T00620005  RH  068%=      5-min Rain = 0
KSVS 171335Z 00016G21KT 06/01 A3014 RMK A01 T00620005  RH  068%=      5-min Rain = 0
KSVS 171340Z 01017G25KT 06/01 A3015 RMK A01 T00620005  RH  068%=      5-min Rain = 0
KSVS 171345Z 00018KT 06/01 A3015 RMK A01 T00640006  RH  067%=      5-min Rain = 0
KSVS 171350Z 00017G22KT 06/01 A3015 RMK A01 T00640005  RH  067%=      5-min Rain = 0
KSVS 171355Z 00017G22KT 07/01 A3016 RMK A01 T00650005  RH  067%=      5-min Rain = 0
KSVS 171400Z 01018G26KT 07/01 A3016 RMK A01 T00650006  RH  066%=      5-min Rain = 0
KSVS 171405Z 00016G22KT 07/01 A3016 RMK A01 T00670006  RH  066%=      5-min Rain = 0
KSVS 171410Z 01018G23KT 07/01 A3016 RMK A01 T00680006  RH  065%=      5-min Rain = 0
KSVS 171415Z 01017G24KT 07/01 A3017 RMK A01 T00690006  RH  065%=      5-min Rain = 0
KSVS 171420Z 00017KT 07/01 A3017 RMK A01 T00700006  RH  065%=      5-min Rain = 0
KSVS 171425Z 00016G22KT 07/01 A3017 RMK A01 T00720007  RH  064%=      5-min Rain = 0
KSVS 171430Z 00018G25KT 07/01 A3017 RMK A01 T00730007  RH  064%=      5-min Rain = 0
KSVS 171435Z 01018G25KT 07/01 A3017 RMK A01 T00740007  RH  063%=      5-min Rain = 0
KSVS 171440Z 01017G24KT 08/01 A3017 RMK A01 T00760007  RH  063%=      5-min Rain = 0
KSVS 171445Z 01017G24KT 08/01 A3017 RMK A01 T00770008  RH  062%=      5-min Rain = 0
KSVS 171450Z 01018G24KT 08/01 A3017 RMK A01 T00790008  RH  062%=      5-min Rain = 0
KSVS 171455Z 01018G24KT 08/01 A3017 RMK A01 T00800008  RH  061%=      5-min Rain = 0
KSVS 171500Z 01018KT 08/01 A3017 RMK A01 T00810008  RH  061%=      5-min Rain = 0
KSVS 171505Z 01017G22KT 08/01 A3017 RMK A01 T00830009  RH  060%=      5-min Rain = 0
KSVS 171510Z 01017G24KT 09/01 A3017 RMK A01 T00850009  RH  060%=      5-min Rain = 0
KSVS 171515Z 02018G26KT 09/01 A3017 RMK A01 T00860009  RH  059%=      5-min Rain = 0
KSVS 171520Z 01017G22KT 09/01 A3017 RMK A01 T00870010  RH  059%=      5-min Rain = 0
KSVS 171525Z 02017G23KT 09/01 A3017 RMK A01 T00890010  RH  059%=      5-min Rain = 0
KSVS 171530Z 01017G22KT 09/01 A3017 RMK A01 T00880010  RH  058%=      5-min Rain = 0
KSVS 171535Z 01017G22KT 09/01 A3017 RMK A01 T00890010  RH  058%=      5-min Rain = 0
KSVS 171540Z 02015G20KT 09/01 A3017 RMK A01 T00920011  RH  057%=      5-min Rain = 0
KSVS 171545Z 01016G21KT 09/01 A3017 RMK A01 T00930010  RH  057%=      5-min Rain = 0
KSVS 171550Z 01016G21KT 10/01 A3018 RMK A01 T00950011  RH  056%=      5-min Rain = 0
KSVS 171555Z 01015G21KT 10/01 A3018 RMK A01 T00960011  RH  056%=      5-min Rain = 0
KSVS 171600Z 01014G19KT 10/01 A3018 RMK A01 T00980012  RH  056%=      5-min Rain = 0
KSVS 171605Z 01014G19KT 10/01 A3018 RMK A01 T01010012  RH  054%=      5-min Rain = 0
KSVS 171610Z 01015KT 10/01 A3018 RMK A01 T01000011  RH  055%=      5-min Rain = 0
KSVS 171615Z 01014KT 10/01 A3018 RMK A01 T01030012  RH  054%=      5-min Rain = 0
KSVS 171620Z 01015G21KT 10/01 A3017 RMK A01 T01040012  RH  053%=      5-min Rain = 0
KSVS 171625Z 01015G22KT 11/01 A3017 RMK A01 T01050011  RH  053%=      5-min Rain = 0
KSVS 171630Z 01016KT 11/01 A3017 RMK A01 T01090012  RH  052%=      5-min Rain = 0
KSVS 171635Z 00015KT 11/01 A3017 RMK A01 T01090013  RH  052%=      5-min Rain = 0
KSVS 171640Z 01013G19KT 11/01 A3017 RMK A01 T01100013  RH  052%=      5-min Rain = 0
KSVS 171645Z 00013KT 11/01 A3017 RMK A01 T01140014  RH  051%=      5-min Rain = 0
KSVS 171650Z 01014KT 11/01 A3017 RMK A01 T01120012  RH  051%=      5-min Rain = 0
KSVS 171655Z 01011KT 11/01 A3017 RMK A01 T01130014  RH  051%=      5-min Rain = 0
KSVS 171700Z 36012KT 12/01 A3017 RMK A01 T01150014  RH  050%=      5-min Rain = 0
KSVS 171705Z 01009KT 12/01 A3017 RMK A01 T01150014  RH  051%=      5-min Rain = 0
KSVS 171710Z 00010G15KT 12/02 A3017 RMK A01 T01220015  RH  049%=      5-min Rain = 0
KSVS 171715Z 01011G17KT 12/02 A3017 RMK A01 T01220015  RH  049%=      5-min Rain = 0
KSVS 171720Z 02011G16KT 13/02 A3017 RMK A01 T01250015  RH  048%=      5-min Rain = 0
KSVS 171725Z 01011G16KT 13/02 A3017 RMK A01 T01250015  RH  048%=      5-min Rain = 0
KSVS 171730Z 01010KT 13/02 A3017 RMK A01 T01270016  RH  047%=      5-min Rain = 0
KSVS 171735Z 01011KT 13/02 A3016 RMK A01 T01290016  RH  047%=      5-min Rain = 0
KSVS 171740Z 02012G17KT 13/02 A3016 RMK A01 T01270015  RH  047%=      5-min Rain = 0
KSVS 171745Z 00011G18KT 13/02 A3017 RMK A01 T01280016  RH  047%=      5-min Rain = 0
KSVS 171750Z 02013KT 13/02 A3017 RMK A01 T01290015  RH  047%=      5-min Rain = 0
KSVS 171755Z 36011KT 13/02 A3016 RMK A01 T01320017  RH  046%=      5-min Rain = 0
KSVS 171800Z 01014G19KT 13/02 A3016 RMK A01 T01320016  RH  046%=      5-min Rain = 0
KSVS 171805Z 00014G19KT 13/02 A3016 RMK A01 T01290015  RH  047%=      5-min Rain = 0
KSVS 171810Z 35014KT 13/02 A3016 RMK A01 T01300016  RH  047%=      5-min Rain = 0
KSVS 171815Z 36013G19KT 13/02 A3016 RMK A01 T01320017  RH  046%=      5-min Rain = 0
KSVS 171820Z 35014G19KT 13/02 A3016 RMK A01 T01330017  RH  046%=      5-min Rain = 0
KSVS 171825Z 35014G19KT 13/02 A3016 RMK A01 T01340017  RH  046%=      5-min Rain = 0
KSVS 171830Z 35013G19KT 13/02 A3016 RMK A01 T01330017  RH  046%=      5-min Rain = 0
KSVS 171835Z 36012G17KT 14/02 A3016 RMK A01 T01360017  RH  045%=      5-min Rain = 0
KSVS 171840Z 00013KT 14/02 A3016 RMK A01 T01370015  RH  044%=      5-min Rain = 0
KSVS 171845Z 02013KT 14/02 A3015 RMK A01 T01380015  RH  044%=      5-min Rain = 0
KSVS 171850Z 01014G20KT 14/02 A3015 RMK A01 T01390015  RH  044%=      5-min Rain = 0
KSVS 171855Z 00013G19KT 14/01 A3015 RMK A01 T01380013  RH  043%=      5-min Rain = 0
KSVS 171900Z 00013KT 14/01 A3015 RMK A01 T01410013  RH  042%=      5-min Rain = 0
KSVS 171905Z 00015G20KT 14/01 A3014 RMK A01 T01410010  RH  042%=      5-min Rain = 0
KSVS 171910Z 00013G19KT 14/01 A3014 RMK A01 T01420010  RH  041%=      5-min Rain = 0
KSVS 171915Z 01011KT 14/01 A3014 RMK A01 T01440010  RH  041%=      5-min Rain = 0
KSVS 171920Z 01013KT 15/01 A3013 RMK A01 T01450010  RH  041%=      5-min Rain = 0
KSVS 171925Z 01012KT 14/01 A3013 RMK A01 T01440009  RH  040%=      5-min Rain = 0
KSVS 171930Z 36012KT 14/01 A3012 RMK A01 T01440008  RH  040%=      5-min Rain = 0
KSVS 171935Z 01012KT 14/01 A3012 RMK A01 T01440008  RH  040%=      5-min Rain = 0
KSVS 171940Z 02010KT 15/01 A3012 RMK A01 T01460009  RH  040%=      5-min Rain = 0
KSVS 171945Z 36011G18KT 15/01 A3011 RMK A01 T01460009  RH  040%=      5-min Rain = 0
KSVS 171950Z 36012G17KT 15/01 A3011 RMK A01 T01480008  RH  039%=      5-min Rain = 0
KSVS 171955Z 01011G16KT 15/01 A301 RMK A01 T01470007  RH  039%=      5-min Rain = 0
KSVS 172000Z 03011G16KT 15/01 A301 RMK A01 T01470006  RH  039%=      5-min Rain = 0
KSVS 172005Z 01008G13KT 15/01 A301 RMK A01 T01460007  RH  039%=      5-min Rain = 0
KSVS 172010Z 00009G14KT 15/01 A301 RMK A01 T01510008  RH  038%=      5-min Rain = 0
KSVS 172015Z 36008KT 15/01 A301 RMK A01 T01480008  RH  039%=      5-min Rain = 0
KSVS 172020Z 01010KT 15/01 A3009 RMK A01 T01500007  RH  038%=      5-min Rain = 0
KSVS 172025Z 35008KT 15/01 A3009 RMK A01 T01490007  RH  038%=      5-min Rain = 0
KSVS 172030Z 01006G12KT 15/01 A3009 RMK A01 T01480007  RH  039%=      5-min Rain = 0
KSVS 172035Z 35007G12KT 15/01 A3009 RMK A01 T01510006  RH  038%=      5-min Rain = 0
KSVS 172040Z 35007G13KT 15/01 A3009 RMK A01 T01510007  RH  038%=      5-min Rain = 0
KSVS 172045Z 35007G12KT 15/01 A3009 RMK A01 T01510006  RH  038%=      5-min Rain = 0
KSVS 172050Z 36007G12KT 15/01 A3009 RMK A01 T01500005  RH  038%=      5-min Rain = 0
KSVS 172055Z 34006G11KT 15/01 A3009 RMK A01 T01520006  RH  037%=      5-min Rain = 0
KSVS 172100Z 34007KT 15/01 A3009 RMK A01 T01510005  RH  037%=      5-min Rain = 0
KSVS 172105Z 35007KT 15/00 A3009 RMK A01 T01500003  RH  037%=      5-min Rain = 0
KSVS 172110Z 31006KT 15/00 A3009 RMK A01 T01540004  RH  037%=      5-min Rain = 0
KSVS 172115Z 33004KT 15/00 A3008 RMK A01 T01530003  RH  036%=      5-min Rain = 0
KSVS 172120Z 00007KT 15/M00 A3008 RMK A01 T01541001  RH  035%=      5-min Rain = 0
KSVS 172125Z 35006KT 15/00 A3008 RMK A01 T01500000  RH  036%=      5-min Rain = 0
KSVS 172130Z 34006KT 15/00 A3008 RMK A01 T01530002  RH  036%=      5-min Rain = 0
KSVS 172135Z 35007G14KT 15/M00 A3008 RMK A01 T01521003  RH  035%=      5-min Rain = 0
KSVS 172140Z 34006KT 15/M00 A3008 RMK A01 T01511002  RH  036%=      5-min Rain = 0
KSVS 172145Z 35006KT 15/M00 A3008 RMK A01 T01541001  RH  035%=      5-min Rain = 0
KSVS 172150Z 35005KT 15/00 A3008 RMK A01 T01530000  RH  036%=      5-min Rain = 0
KSVS 172155Z 00005KT 16/M00 A3008 RMK A01 T01551002  RH  035%=      5-min Rain = 0
KSVS 172200Z 35006KT 15/M00 A3008 RMK A01 T01521004  RH  035%=      5-min Rain = 0
KSVS 172205Z 36006KT 15/M01 A3008 RMK A01 T01511006  RH  035%=      5-min Rain = 0
KSVS 172210Z 01004KT 15/M00 A3008 RMK A01 T01501003  RH  036%=      5-min Rain = 0
KSVS 172215Z 36004KT 15/M00 A3008 RMK A01 T01511004  RH  035%=      5-min Rain = 0
KSVS 172220Z 36006KT 15/M00 A3008 RMK A01 T01501004  RH  035%=      5-min Rain = 0
KSVS 172225Z 36004KT 15/M01 A3008 RMK A01 T01491006  RH  035%=      5-min Rain = 0
KSVS 172230Z 36004KT 15/M01 A3008 RMK A01 T01501006  RH  035%=      5-min Rain = 0
KSVS 172235Z 35005KT 15/M01 A3008 RMK A01 T01491005  RH  035%=      5-min Rain = 0
KSVS 172240Z 35004KT 15/M01 A3008 RMK A01 T01481005  RH  036%=      5-min Rain = 0
KSVS 172245Z 01004KT 15/M00 A3008 RMK A01 T01471004  RH  036%=      5-min Rain = 0
KSVS 172250Z 35004KT 15/M00 A3008 RMK A01 T01461003  RH  037%=      5-min Rain = 0
KSVS 172255Z 33005KT 14/M00 A3009 RMK A01 T01431002  RH  037%=      5-min Rain = 0
KSVS 172300Z 35004KT 14/M00 A3009 RMK A01 T01421002  RH  038%=      5-min Rain = 0
KSVS 172305Z 35002KT 14/M00 A3009 RMK A01 T01411002  RH  038%=      5-min Rain = 0
KSVS 172310Z 34002KT 14/M00 A3009 RMK A01 T01401002  RH  038%=      5-min Rain = 0
KSVS 172315Z 34001KT 14/M00 A3009 RMK A01 T01411002  RH  038%=      5-min Rain = 0
KSVS 172320Z 34001KT 14/M00 A3009 RMK A01 T01391002  RH  038%=      5-min Rain = 0
KSVS 172325Z 33001KT 14/M00 A3009 RMK A01 T01371002  RH  039%=      5-min Rain = 0
KSVS 172330Z 33001KT 13/M00 A3009 RMK A01 T01331003  RH  040%=      5-min Rain = 0
KSVS 172335Z 33001KT 12/M01 A3009 RMK A01 T01241005  RH  042%=      5-min Rain = 0
KSVS 172340Z 33002KT 12/M01 A3009 RMK A01 T01151005  RH  044%=      5-min Rain = 0
KSVS 172345Z 33001KT 11/M00 A3009 RMK A01 T01111004  RH  045%=      5-min Rain = 0
KSVS 172350Z 31001KT 11/M01 A3009 RMK A01 T01051005  RH  047%=      5-min Rain = 0
KSVS 172355Z 31001KT 10/M00 A3009 RMK A01 T01021003  RH  049%=      5-min Rain = 0
KSVS 180000Z 35001KT 10/M00 A3009 RMK A01 T01041002  RH  048%=      5-min Rain = 0
KSVS 180005Z 03001KT 11/M00 A3009 RMK A01 T01051002  RH  048%=      5-min Rain = 0
KSVS 180010Z 03000KT 10/M01 A3009 RMK A01 T00961007  RH  049%=      5-min Rain = 0
KSVS 180015Z 01000KT 09/M00 A3009 RMK A01 T00871004  RH  053%=      5-min Rain = 0
KSVS 180020Z 27000KT 10/M00 A3009 RMK A01 T00991003  RH  050%=      5-min Rain = 0
KSVS 180025Z 27000KT 10/M00 A3009 RMK A01 T01041002  RH  048%=      5-min Rain = 0
KSVS 180030Z 27000KT 10/M00 A3009 RMK A01 T00961004  RH  050%=      5-min Rain = 0
KSVS 180035Z 27000KT 10/M00 A3009 RMK A01 T00961003  RH  051%=      5-min Rain = 0
KSVS 180040Z 00000KT 10/M00 A3009 RMK A01 T01011004  RH  049%=      5-min Rain = 0
KSVS 180045Z 00000KT 10/M01 A3009 RMK A01 T00981005  RH  049%=      5-min Rain = 0
KSVS 180050Z 27000KT 09/M01 A3009 RMK A01 T00911005  RH  052%=      5-min Rain = 0
KSVS 180055Z 20001KT 09/M00 A3009 RMK A01 T00901004  RH  052%=      5-min Rain = 0
KSVS 180100Z 19003KT 09/M00 A3009 RMK A01 T00881004  RH  053%=      5-min Rain = 0
KSVS 180105Z 20004KT 08/M01 A3009 RMK A01 T00761009  RH  056%=      5-min Rain = 0
KSVS 180110Z 20003KT 07/M01 A3009 RMK A01 T00651012  RH  059%=      5-min Rain = 0
KSVS 180115Z 20003KT 06/M01 A301 RMK A01 T00631011  RH  060%=      5-min Rain = 0
KSVS 180120Z 21003KT 07/M01 A301 RMK A01 T00721007  RH  058%=      5-min Rain = 0
KSVS 180125Z 22004KT 07/M01 A301 RMK A01 T00691011  RH  057%=      5-min Rain = 0
KSVS 180130Z 23004KT 06/M02 A301 RMK A01 T00571017  RH  059%=      5-min Rain = 0
KSVS 180135Z 24003KT 05/M02 A301 RMK A01 T00501018  RH  062%=      5-min Rain = 0
KSVS 180140Z 24004KT 05/M02 A301 RMK A01 T00461022  RH  062%=      5-min Rain = 0
KSVS 180145Z 25004KT 04/M03 A301 RMK A01 T00441025  RH  061%=      5-min Rain = 0
KSVS 180150Z 25005KT 04/M02 A301 RMK A01 T00421023  RH  063%=      5-min Rain = 0
KSVS 180155Z 25005KT 04/M02 A3011 RMK A01 T00401022  RH  065%=      5-min Rain = 0
KSVS 180200Z 25005KT 04/M02 A3011 RMK A01 T00381022  RH  065%=      5-min Rain = 0
KSVS 180205Z 24004KT 04/M02 A3011 RMK A01 T00411023  RH  063%=      5-min Rain = 0
KSVS 180210Z 24004KT 04/M02 A3011 RMK A01 T00421024  RH  063%=      5-min Rain = 0
KSVS 180215Z 25004KT 04/M02 A301 RMK A01 T00431021  RH  063%=      5-min Rain = 0
KSVS 180220Z 25004KT 04/M02 A301 RMK A01 T00401023  RH  064%=      5-min Rain = 0
KSVS 180225Z 25005KT 04/M02 A301 RMK A01 T00421023  RH  063%=      5-min Rain = 0
KSVS 180230Z 25004KT 04/M02 A301 RMK A01 T00411023  RH  063%=      5-min Rain = 0
KSVS 180235Z 25004KT 04/M02 A301 RMK A01 T00421021  RH  064%=      5-min Rain = 0
KSVS 180240Z 25004KT 05/M02 A301 RMK A01 T00461018  RH  064%=      5-min Rain = 0
KSVS 180245Z 25004KT 05/M02 A3011 RMK A01 T00461019  RH  063%=      5-min Rain = 0
KSVS 180250Z 23005KT 05/M02 A301 RMK A01 T00451020  RH  063%=      5-min Rain = 0
KSVS 180255Z 22006KT 05/M02 A301 RMK A01 T00451018  RH  064%=      5-min Rain = 0
KSVS 180300Z 22006KT 04/M01 A301 RMK A01 T00421014  RH  067%=      5-min Rain = 0
KSVS 180305Z 22006KT 04/M01 A301 RMK A01 T00401012  RH  070%=      5-min Rain = 0
KSVS 180310Z 22005KT 04/M01 A301 RMK A01 T00371012  RH  071%=      5-min Rain = 0
KSVS 180315Z 22004KT 04/M01 A301 RMK A01 T00361011  RH  072%=      5-min Rain = 0
KSVS 180320Z 22004KT 04/M01 A301 RMK A01 T00361012  RH  072%=      5-min Rain = 0
KSVS 180325Z 23005KT 03/M01 A301 RMK A01 T00341014  RH  071%=      5-min Rain = 0
KSVS 180330Z 23005KT 03/M02 A301 RMK A01 T00301018  RH  071%=      5-min Rain = 0
KSVS 180335Z 23005KT 03/M02 A301 RMK A01 T00291022  RH  070%=      5-min Rain = 0
KSVS 180340Z 23006KT 03/M02 A301 RMK A01 T00301024  RH  068%=      5-min Rain = 0
KSVS 180345Z 24005KT 03/M03 A301 RMK A01 T00271027  RH  068%=      5-min Rain = 0
KSVS 180350Z 24006KT 03/M03 A301 RMK A01 T00261028  RH  068%=      5-min Rain = 0
KSVS 180355Z 24005KT 03/M03 A301 RMK A01 T00271027  RH  068%=      5-min Rain = 0
KSVS 180400Z 24006KT 03/M03 A301 RMK A01 T00261026  RH  069%=      5-min Rain = 0
KSVS 180405Z 24006KT 03/M03 A3009 RMK A01 T00261029  RH  068%=      5-min Rain = 0
KSVS 180410Z 23006KT 03/M03 A3009 RMK A01 T00251025  RH  070%=      5-min Rain = 0
KSVS 180415Z 23006KT 03/M02 A3009 RMK A01 T00251018  RH  074%=      5-min Rain = 0
KSVS 180420Z 23007KT 02/M02 A3009 RMK A01 T00241016  RH  076%=      5-min Rain = 0
KSVS 180425Z 23008KT 02/M02 A3008 RMK A01 T00221015  RH  077%=      5-min Rain = 0
KSVS 180430Z 23008KT 02/M01 A3008 RMK A01 T00221014  RH  078%=      5-min Rain = 0
KSVS 180435Z 23007KT 02/M01 A3008 RMK A01 T00231014  RH  077%=      5-min Rain = 0
KSVS 180440Z 23006KT 02/M02 A3008 RMK A01 T00231016  RH  076%=      5-min Rain = 0
KSVS 180445Z 23006KT 02/M02 A3007 RMK A01 T00221018  RH  076%=      5-min Rain = 0
KSVS 180450Z 22007KT 02/M02 A3007 RMK A01 T00191020  RH  076%=      5-min Rain = 0
KSVS 180455Z 22007KT 02/M02 A3007 RMK A01 T00161019  RH  078%=      5-min Rain = 0
KSVS 180500Z 22008KT 02/M02 A3007 RMK A01 T00181015  RH  079%=      5-min Rain = 0
KSVS 180505Z 22008KT 02/M01 A3007 RMK A01 T00241011  RH  078%=      5-min Rain = 0
KSVS 180510Z 22008KT 02/M01 A3007 RMK A01 T00231013  RH  078%=      5-min Rain = 0
KSVS 180515Z 22007KT 02/M02 A3006 RMK A01 T00191015  RH  079%=      5-min Rain = 0
KSVS 180520Z 23007KT 02/M02 A3006 RMK A01 T00181016  RH  079%=      5-min Rain = 0
KSVS 180525Z 23007KT 02/M02 A3006 RMK A01 T00161016  RH  079%=      5-min Rain = 0
KSVS 180530Z 23008KT 02/M02 A3006 RMK A01 T00151017  RH  080%=      5-min Rain = 0
KSVS 180535Z 23009KT 02/M01 A3005 RMK A01 T00201012  RH  080%=      5-min Rain = 0
KSVS 180540Z 23008KT 03/M01 A3005 RMK A01 T00311005  RH  078%=      5-min Rain = 0
KSVS 180545Z 22008KT 03/M01 A3005 RMK A01 T00331005  RH  077%=      5-min Rain = 0
KSVS 180550Z 23008KT 03/M01 A3005 RMK A01 T00311007  RH  077%=      5-min Rain = 0
KSVS 180555Z 23008KT 03/M01 A3005 RMK A01 T00291009  RH  077%=      5-min Rain = 0

Page generated in 0.0153 seconds.